sensor_id;sensor_type;location;lat;lon;timestamp;pressure;altitude;pressure_sealevel;temperature;humidity
21359;BME280;13506;50.852;20.632;2023-01-16T00:00:30;97316.38;;;2.96;100.00
21359;BME280;13506;50.852;20.632;2023-01-16T00:03:18;97321.38;;;3.14;100.00
21359;BME280;13506;50.852;20.632;2023-01-16T00:05:47;97312.06;;;3.11;100.00
21359;BME280;13506;50.852;20.632;2023-01-16T00:08:14;97322.41;;;3.11;100.00
21359;BME280;13506;50.852;20.632;2023-01-16T00:10:45;97321.22;;;3.17;100.00
21359;BME280;13506;50.852;20.632;2023-01-16T00:13:13;97329.53;;;3.22;100.00
21359;BME280;13506;50.852;20.632;2023-01-16T00:15:45;97335.34;;;3.26;100.00
21359;BME280;13506;50.852;20.632;2023-01-16T00:18:12;97327.31;;;3.30;100.00
21359;BME280;13506;50.852;20.632;2023-01-16T00:20:41;97319.56;;;3.30;100.00
21359;BME280;13506;50.852;20.632;2023-01-16T00:23:09;97326.00;;;3.23;100.00
21359;BME280;13506;50.852;20.632;2023-01-16T00:25:39;97327.22;;;3.17;100.00
21359;BME280;13506;50.852;20.632;2023-01-16T00:28:09;97329.72;;;3.19;100.00
21359;BME280;13506;50.852;20.632;2023-01-16T00:30:40;97325.38;;;3.19;100.00
21359;BME280;13506;50.852;20.632;2023-01-16T00:33:09;97312.25;;;3.22;100.00
21359;BME280;13506;50.852;20.632;2023-01-16T00:35:37;97309.59;;;3.24;100.00
21359;BME280;13506;50.852;20.632;2023-01-16T00:38:05;97315.31;;;3.29;100.00
21359;BME280;13506;50.852;20.632;2023-01-16T00:40:33;97308.31;;;3.17;100.00
21359;BME280;13506;50.852;20.632;2023-01-16T00:43:00;97315.47;;;3.12;100.00
21359;BME280;13506;50.852;20.632;2023-01-16T00:45:30;97306.72;;;3.14;100.00
21359;BME280;13506;50.852;20.632;2023-01-16T00:47:57;97312.06;;;3.11;100.00
21359;BME280;13506;50.852;20.632;2023-01-16T00:50:26;97316.41;;;3.11;100.00
21359;BME280;13506;50.852;20.632;2023-01-16T00:52:53;97315.19;;;3.16;100.00
21359;BME280;13506;50.852;20.632;2023-01-16T00:55:21;97302.41;;;3.15;100.00
21359;BME280;13506;50.852;20.632;2023-01-16T00:57:49;97315.13;;;3.18;100.00
21359;BME280;13506;50.852;20.632;2023-01-16T01:00:18;97311.44;;;3.22;100.00
21359;BME280;13506;50.852;20.632;2023-01-16T01:02:49;97316.13;;;3.15;100.00
21359;BME280;13506;50.852;20.632;2023-01-16T01:05:18;97322.72;;;3.21;100.00
21359;BME280;13506;50.852;20.632;2023-01-16T01:07:46;97301.47;;;3.30;100.00
21359;BME280;13506;50.852;20.632;2023-01-16T01:10:14;97316.53;;;3.23;100.00
21359;BME280;13506;50.852;20.632;2023-01-16T01:12:42;97315.50;;;3.26;100.00
21359;BME280;13506;50.852;20.632;2023-01-16T01:15:10;97308.66;;;3.25;100.00
21359;BME280;13506;50.852;20.632;2023-01-16T01:17:38;97308.56;;;3.27;100.00
21359;BME280;13506;50.852;20.632;2023-01-16T01:20:10;97312.63;;;3.31;100.00
21359;BME280;13506;50.852;20.632;2023-01-16T01:22:37;97307.28;;;3.19;100.00
21359;BME280;13506;50.852;20.632;2023-01-16T01:25:06;97308.66;;;3.25;100.00
21359;BME280;13506;50.852;20.632;2023-01-16T01:27:34;97302.94;;;3.20;100.00
21359;BME280;13506;50.852;20.632;2023-01-16T01:30:02;97311.31;;;3.09;100.00
21359;BME280;13506;50.852;20.632;2023-01-16T01:32:30;97299.22;;;3.10;100.00
21359;BME280;13506;50.852;20.632;2023-01-16T01:34:58;97301.28;;;3.05;100.00
21359;BME280;13506;50.852;20.632;2023-01-16T01:37:28;97307.34;;;3.03;100.00
21359;BME280;13506;50.852;20.632;2023-01-16T01:39:56;97304.94;;;3.00;100.00
21359;BME280;13506;50.852;20.632;2023-01-16T01:42:24;97306.78;;;2.98;100.00
21359;BME280;13506;50.852;20.632;2023-01-16T01:45:17;97301.97;;;2.92;100.00
21359;BME280;13506;50.852;20.632;2023-01-16T01:47:49;97303.63;;;2.93;100.00
21359;BME280;13506;50.852;20.632;2023-01-16T01:50:32;97304.38;;;2.95;100.00
21359;BME280;13506;50.852;20.632;2023-01-16T01:53:08;97300.06;;;2.96;100.00
21359;BME280;13506;50.852;20.632;2023-01-16T01:55:39;97298.47;;;2.93;100.00
21359;BME280;13506;50.852;20.632;2023-01-16T01:58:08;97290.63;;;2.95;100.00
21359;BME280;13506;50.852;20.632;2023-01-16T02:00:37;97293.50;;;2.90;100.00
21359;BME280;13506;50.852;20.632;2023-01-16T02:03:08;97280.38;;;2.79;100.00
21359;BME280;13506;50.852;20.632;2023-01-16T02:05:40;97286.84;;;2.86;100.00
21359;BME280;13506;50.852;20.632;2023-01-16T02:08:14;97281.66;;;2.86;100.00
21359;BME280;13506;50.852;20.632;2023-01-16T02:10:47;97280.09;;;2.84;100.00
21359;BME280;13506;50.852;20.632;2023-01-16T02:13:15;97279.63;;;2.77;100.00
21359;BME280;13506;50.852;20.632;2023-01-16T02:15:43;97272.88;;;2.74;100.00
21359;BME280;13506;50.852;20.632;2023-01-16T02:18:25;97274.75;;;2.72;100.00
21359;BME280;13506;50.852;20.632;2023-01-16T02:21:45;97268.84;;;2.70;100.00
21359;BME280;13506;50.852;20.632;2023-01-16T02:24:53;97279.41;;;2.66;100.00
21359;BME280;13506;50.852;20.632;2023-01-16T02:31:09;97251.53;;;2.56;100.00
21359;BME280;13506;50.852;20.632;2023-01-16T02:33:57;97245.81;;;2.51;100.00
21359;BME280;13506;50.852;20.632;2023-01-16T02:36:40;97255.50;;;2.48;100.00
21359;BME280;13506;50.852;20.632;2023-01-16T02:39:23;97253.81;;;2.47;100.00
21359;BME280;13506;50.852;20.632;2023-01-16T02:42:03;97248.81;;;2.44;100.00
21359;BME280;13506;50.852;20.632;2023-01-16T02:44:40;97239.50;;;2.41;100.00
21359;BME280;13506;50.852;20.632;2023-01-16T02:47:17;97251.66;;;2.39;100.00
21359;BME280;13506;50.852;20.632;2023-01-16T02:49:58;97258.66;;;2.37;100.00
21359;BME280;13506;50.852;20.632;2023-01-16T02:52:33;97255.66;;;2.29;100.00
21359;BME280;13506;50.852;20.632;2023-01-16T02:55:11;97257.31;;;2.30;100.00
21359;BME280;13506;50.852;20.632;2023-01-16T02:57:46;97253.50;;;2.21;100.00
21359;BME280;13506;50.852;20.632;2023-01-16T03:00:16;97249.28;;;2.20;100.00
21359;BME280;13506;50.852;20.632;2023-01-16T03:02:46;97247.72;;;2.17;100.00
21359;BME280;13506;50.852;20.632;2023-01-16T03:05:15;97250.28;;;2.17;100.00
21359;BME280;13506;50.852;20.632;2023-01-16T03:08:22;97233.41;;;2.12;100.00
21359;BME280;13506;50.852;20.632;2023-01-16T03:11:14;97234.41;;;2.09;100.00
21359;BME280;13506;50.852;20.632;2023-01-16T03:14:30;97230.91;;;2.10;100.00
21359;BME280;13506;50.852;20.632;2023-01-16T03:17:15;97232.84;;;2.07;100.00
21359;BME280;13506;50.852;20.632;2023-01-16T03:20:04;97231.09;;;2.07;100.00
21359;BME280;13506;50.852;20.632;2023-01-16T03:22:39;97250.03;;;2.06;100.00
21359;BME280;13506;50.852;20.632;2023-01-16T03:25:21;97250.03;;;2.06;100.00
21359;BME280;13506;50.852;20.632;2023-01-16T03:28:03;97251.72;;;2.07;100.00
21359;BME280;13506;50.852;20.632;2023-01-16T03:30:45;97242.41;;;2.05;100.00
21359;BME280;13506;50.852;20.632;2023-01-16T03:33:27;97248.53;;;2.02;100.00
21359;BME280;13506;50.852;20.632;2023-01-16T03:36:04;97256.38;;;2.00;100.00
21359;BME280;13506;50.852;20.632;2023-01-16T03:38:35;97239.50;;;1.79;100.00
21359;BME280;13506;50.852;20.632;2023-01-16T03:41:06;97250.72;;;1.94;100.00
21359;BME280;13506;50.852;20.632;2023-01-16T03:43:38;97244.50;;;1.82;100.00
21359;BME280;13506;50.852;20.632;2023-01-16T03:46:10;97235.41;;;1.91;100.00
21359;BME280;13506;50.852;20.632;2023-01-16T03:48:44;97244.91;;;1.90;100.00
21359;BME280;13506;50.852;20.632;2023-01-16T03:51:21;97241.59;;;1.88;100.00
21359;BME280;13506;50.852;20.632;2023-01-16T03:53:57;97239.91;;;1.87;100.00
21359;BME280;13506;50.852;20.632;2023-01-16T03:56:34;97239.09;;;1.87;100.00
21359;BME280;13506;50.852;20.632;2023-01-16T03:59:04;97233.09;;;1.86;100.00
21359;BME280;13506;50.852;20.632;2023-01-16T04:01:38;97235.75;;;1.85;100.00
21359;BME280;13506;50.852;20.632;2023-01-16T04:04:18;97240.16;;;1.83;100.00
21359;BME280;13506;50.852;20.632;2023-01-16T04:06:53;97239.09;;;1.87;100.00
21359;BME280;13506;50.852;20.632;2023-01-16T04:09:30;97234.84;;;1.86;100.00
21359;BME280;13506;50.852;20.632;2023-01-16T04:12:02;97237.75;;;1.79;100.00
21359;BME280;13506;50.852;20.632;2023-01-16T04:14:31;97238.75;;;1.77;100.00
21359;BME280;13506;50.852;20.632;2023-01-16T04:17:01;97230.38;;;1.73;100.00
21359;BME280;13506;50.852;20.632;2023-01-16T04:19:31;97240.81;;;1.70;100.00
21359;BME280;13506;50.852;20.632;2023-01-16T04:22:06;97224.78;;;1.65;100.00
21359;BME280;13506;50.852;20.632;2023-01-16T04:24:34;97229.13;;;1.65;100.00
21359;BME280;13506;50.852;20.632;2023-01-16T04:27:02;97230.94;;;1.63;100.00
21359;BME280;13506;50.852;20.632;2023-01-16T04:29:30;97222.38;;;1.62;100.00
21359;BME280;13506;50.852;20.632;2023-01-16T04:31:58;97223.28;;;1.61;100.00
21359;BME280;13506;50.852;20.632;2023-01-16T04:34:26;97235.50;;;1.57;100.00
21359;BME280;13506;50.852;20.632;2023-01-16T04:36:53;97226.19;;;1.55;100.00
21359;BME280;13506;50.852;20.632;2023-01-16T04:39:23;97230.59;;;1.53;100.00
21359;BME280;13506;50.852;20.632;2023-01-16T04:41:51;97227.47;;;1.48;100.00
21359;BME280;13506;50.852;20.632;2023-01-16T04:44:18;97223.13;;;1.48;100.00
21359;BME280;13506;50.852;20.632;2023-01-16T04:46:46;97215.66;;;1.44;100.00
21359;BME280;13506;50.852;20.632;2023-01-16T04:49:14;97211.38;;;1.43;100.00
21359;BME280;13506;50.852;20.632;2023-01-16T04:51:42;97209.75;;;1.42;100.00
21359;BME280;13506;50.852;20.632;2023-01-16T04:54:15;97211.66;;;1.38;100.00
21359;BME280;13506;50.852;20.632;2023-01-16T04:56:44;97207.31;;;1.38;100.00
21359;BME280;13506;50.852;20.632;2023-01-16T04:59:12;97211.72;;;1.36;100.00
21359;BME280;13506;50.852;20.632;2023-01-16T05:01:40;97203.50;;;1.30;100.00
21359;BME280;13506;50.852;20.632;2023-01-16T05:04:11;97190.84;;;1.25;100.00
21359;BME280;13506;50.852;20.632;2023-01-16T05:06:40;97186.03;;;1.19;100.00
21359;BME280;13506;50.852;20.632;2023-01-16T05:09:09;97191.44;;;1.14;100.00
21359;BME280;13506;50.852;20.632;2023-01-16T05:11:36;97191.81;;;1.07;100.00
21359;BME280;13506;50.852;20.632;2023-01-16T05:14:06;97183.84;;;0.95;100.00
21359;BME280;13506;50.852;20.632;2023-01-16T05:16:34;97188.63;;;0.86;100.00
21359;BME280;13506;50.852;20.632;2023-01-16T05:19:03;97184.78;;;0.77;100.00
21359;BME280;13506;50.852;20.632;2023-01-16T05:21:31;97179.56;;;0.78;100.00
21359;BME280;13506;50.852;20.632;2023-01-16T05:23:59;97187.03;;;0.83;100.00
21359;BME280;13506;50.852;20.632;2023-01-16T05:26:27;97173.94;;;0.88;100.00
21359;BME280;13506;50.852;20.632;2023-01-16T05:28:55;97171.28;;;0.89;100.00
21359;BME280;13506;50.852;20.632;2023-01-16T05:31:25;97173.63;;;0.94;100.00
21359;BME280;13506;50.852;20.632;2023-01-16T05:33:53;97171.72;;;0.97;100.00
21359;BME280;13506;50.852;20.632;2023-01-16T05:36:21;97169.22;;;0.96;100.00
21359;BME280;13506;50.852;20.632;2023-01-16T05:38:49;97160.09;;;0.90;100.00
21359;BME280;13506;50.852;20.632;2023-01-16T05:41:17;97158.28;;;0.92;100.00
21359;BME280;13506;50.852;20.632;2023-01-16T05:43:46;97163.91;;;0.99;100.00
21359;BME280;13506;50.852;20.632;2023-01-16T05:46:13;97165.56;;;1.00;100.00
21359;BME280;13506;50.852;20.632;2023-01-16T05:48:43;97171.88;;;0.94;100.00
21359;BME280;13506;50.852;20.632;2023-01-16T05:51:11;97166.84;;;0.42;100.00
21359;BME280;13506;50.852;20.632;2023-01-16T05:53:39;97164.28;;;0.42;100.00
21359;BME280;13506;50.852;20.632;2023-01-16T05:56:08;97159.13;;;0.42;100.00
21359;BME280;13506;50.852;20.632;2023-01-16T05:58:37;97164.72;;;0.15;100.00
21359;BME280;13506;50.852;20.632;2023-01-16T06:01:05;97157.31;;;0.09;100.00
21359;BME280;13506;50.852;20.632;2023-01-16T06:03:34;97158.81;;;0.13;100.00
21359;BME280;13506;50.852;20.632;2023-01-16T06:06:03;97141.00;;;0.10;100.00
21359;BME280;13506;50.852;20.632;2023-01-16T06:08:31;97156.72;;;-0.13;100.00
21359;BME280;13506;50.852;20.632;2023-01-16T06:10:59;97166.31;;;-0.53;100.00
21359;BME280;13506;50.852;20.632;2023-01-16T06:13:27;97153.72;;;-0.40;100.00
21359;BME280;13506;50.852;20.632;2023-01-16T06:15:55;97149.97;;;-0.52;100.00
21359;BME280;13506;50.852;20.632;2023-01-16T06:18:23;97150.34;;;-0.41;100.00
21359;BME280;13506;50.852;20.632;2023-01-16T06:20:51;97128.56;;;-0.34;100.00
21359;BME280;13506;50.852;20.632;2023-01-16T06:23:20;97141.88;;;-0.26;100.00
21359;BME280;13506;50.852;20.632;2023-01-16T06:25:49;97135.41;;;-0.15;100.00
21359;BME280;13506;50.852;20.632;2023-01-16T06:28:17;97136.59;;;-0.05;100.00
21359;BME280;13506;50.852;20.632;2023-01-16T06:30:49;97137.97;;;0.02;100.00
21359;BME280;13506;50.852;20.632;2023-01-16T06:33:17;97148.25;;;0.02;100.00
21359;BME280;13506;50.852;20.632;2023-01-16T06:35:45;97138.25;;;0.13;100.00
21359;BME280;13506;50.852;20.632;2023-01-16T06:38:15;97141.44;;;0.19;100.00
21359;BME280;13506;50.852;20.632;2023-01-16T06:40:45;97133.41;;;0.07;100.00
21359;BME280;13506;50.852;20.632;2023-01-16T06:43:12;97136.22;;;0.03;100.00
21359;BME280;13506;50.852;20.632;2023-01-16T06:45:41;97140.16;;;0.10;100.00
21359;BME280;13506;50.852;20.632;2023-01-16T06:48:11;97136.00;;;0.07;100.00
21359;BME280;13506;50.852;20.632;2023-01-16T06:50:39;97120.66;;;0.06;100.00
21359;BME280;13506;50.852;20.632;2023-01-16T06:53:07;97122.53;;;0.20;100.00
21359;BME280;13506;50.852;20.632;2023-01-16T06:55:36;97132.13;;;0.16;100.00
21359;BME280;13506;50.852;20.632;2023-01-16T06:58:05;97127.19;;;0.29;100.00
21359;BME280;13506;50.852;20.632;2023-01-16T07:00:34;97126.63;;;0.06;100.00
21359;BME280;13506;50.852;20.632;2023-01-16T07:03:03;97118.91;;;0.06;100.00
21359;BME280;13506;50.852;20.632;2023-01-16T07:05:31;97115.44;;;0.25;100.00
21359;BME280;13506;50.852;20.632;2023-01-16T07:07:59;97111.97;;;-0.09;100.00
21359;BME280;13506;50.852;20.632;2023-01-16T07:10:27;97119.97;;;0.02;100.00
21359;BME280;13506;50.852;20.632;2023-01-16T07:12:55;97103.81;;;-0.17;100.00
21359;BME280;13506;50.852;20.632;2023-01-16T07:15:25;97111.28;;;-0.13;100.00
21359;BME280;13506;50.852;20.632;2023-01-16T07:18:12;97101.91;;;0.04;100.00
21359;BME280;13506;50.852;20.632;2023-01-16T07:21:01;97116.19;;;0.09;100.00
21359;BME280;13506;50.852;20.632;2023-01-16T07:23:50;97109.28;;;0.27;100.00
21359;BME280;13506;50.852;20.632;2023-01-16T07:26:22;97104.59;;;0.35;100.00
21359;BME280;13506;50.852;20.632;2023-01-16T07:28:51;97102.84;;;0.36;100.00
21359;BME280;13506;50.852;20.632;2023-01-16T07:31:22;97099.00;;;0.27;100.00
21359;BME280;13506;50.852;20.632;2023-01-16T07:33:50;97092.72;;;0.15;100.00
21359;BME280;13506;50.852;20.632;2023-01-16T07:36:18;97109.16;;;0.13;100.00
21359;BME280;13506;50.852;20.632;2023-01-16T07:38:46;97098.50;;;0.21;100.00
21359;BME280;13506;50.852;20.632;2023-01-16T07:41:14;97099.66;;;0.31;100.00
21359;BME280;13506;50.852;20.632;2023-01-16T07:43:42;97095.56;;;0.44;100.00
21359;BME280;13506;50.852;20.632;2023-01-16T07:46:09;97084.78;;;0.53;100.00
21359;BME280;13506;50.852;20.632;2023-01-16T07:48:39;97084.47;;;0.60;100.00
21359;BME280;13506;50.852;20.632;2023-01-16T07:51:06;97100.47;;;0.65;100.00
21359;BME280;13506;50.852;20.632;2023-01-16T07:53:35;97100.41;;;0.66;100.00
21359;BME280;13506;50.852;20.632;2023-01-16T07:56:03;97106.63;;;0.62;100.00
21359;BME280;13506;50.852;20.632;2023-01-16T07:58:31;97104.56;;;0.69;100.00
21359;BME280;13506;50.852;20.632;2023-01-16T08:00:59;97099.69;;;0.80;100.00
21359;BME280;13506;50.852;20.632;2023-01-16T08:03:27;97095.94;;;0.86;100.00
21359;BME280;13506;50.852;20.632;2023-01-16T08:05:57;97102.94;;;0.99;100.00
21359;BME280;13506;50.852;20.632;2023-01-16T08:08:26;97098.97;;;1.10;100.00
21359;BME280;13506;50.852;20.632;2023-01-16T08:10:55;97098.88;;;1.11;100.00
21359;BME280;13506;50.852;20.632;2023-01-16T08:13:23;97092.56;;;1.17;100.00
21359;BME280;13506;50.852;20.632;2023-01-16T08:15:52;97094.72;;;1.09;100.00
21359;BME280;13506;50.852;20.632;2023-01-16T08:18:20;97094.19;;;0.70;100.00
21359;BME280;13506;50.852;20.632;2023-01-16T08:20:48;97089.59;;;0.44;100.00
21359;BME280;13506;50.852;20.632;2023-01-16T08:23:17;97106.28;;;0.52;100.00
21359;BME280;13506;50.852;20.632;2023-01-16T08:25:49;97096.94;;;0.34;100.00
21359;BME280;13506;50.852;20.632;2023-01-16T08:28:19;97090.63;;;0.73;100.00
21359;BME280;13506;50.852;20.632;2023-01-16T08:30:46;97083.31;;;0.81;100.00
21359;BME280;13506;50.852;20.632;2023-01-16T08:33:14;97086.78;;;0.48;100.00
21359;BME280;13506;50.852;20.632;2023-01-16T08:35:42;97087.72;;;0.30;100.00
21359;BME280;13506;50.852;20.632;2023-01-16T08:38:10;97083.72;;;0.24;100.00
21359;BME280;13506;50.852;20.632;2023-01-16T08:40:39;97077.25;;;0.33;100.00
21359;BME280;13506;50.852;20.632;2023-01-16T08:43:08;97074.41;;;0.22;100.00
21359;BME280;13506;50.852;20.632;2023-01-16T08:45:54;97075.97;;;-0.09;100.00
21359;BME280;13506;50.852;20.632;2023-01-16T08:48:48;97073.19;;;-0.05;100.00
21359;BME280;13506;50.852;20.632;2023-01-16T08:51:34;97054.19;;;-0.37;100.00
21359;BME280;13506;50.852;20.632;2023-01-16T08:54:02;97058.44;;;-0.36;100.00
21359;BME280;13506;50.852;20.632;2023-01-16T08:56:32;97053.13;;;-0.33;100.00
21359;BME280;13506;50.852;20.632;2023-01-16T08:59:00;97039.22;;;-0.29;100.00
21359;BME280;13506;50.852;20.632;2023-01-16T09:01:28;97038.09;;;-0.23;100.00
21359;BME280;13506;50.852;20.632;2023-01-16T09:03:56;97027.91;;;-0.59;100.00
21359;BME280;13506;50.852;20.632;2023-01-16T09:06:23;97023.31;;;-0.53;100.00
21359;BME280;13506;50.852;20.632;2023-01-16T09:08:52;97039.84;;;-0.58;100.00
21359;BME280;13506;50.852;20.632;2023-01-16T09:11:20;97032.22;;;-0.42;100.00
21359;BME280;13506;50.852;20.632;2023-01-16T09:14:06;97017.41;;;-0.55;100.00
21359;BME280;13506;50.852;20.632;2023-01-16T09:16:34;97017.50;;;-0.39;100.00
21359;BME280;13506;50.852;20.632;2023-01-16T09:19:02;97014.31;;;-0.44;100.00
21359;BME280;13506;50.852;20.632;2023-01-16T09:21:30;97017.03;;;-0.30;100.00
21359;BME280;13506;50.852;20.632;2023-01-16T09:23:58;97011.28;;;-0.17;100.00
21359;BME280;13506;50.852;20.632;2023-01-16T09:26:26;97007.72;;;-0.15;100.00
21359;BME280;13506;50.852;20.632;2023-01-16T09:28:53;97001.44;;;-0.09;100.00
21359;BME280;13506;50.852;20.632;2023-01-16T09:31:23;96999.88;;;-0.29;100.00
21359;BME280;13506;50.852;20.632;2023-01-16T09:33:51;96988.84;;;-0.31;100.00
21359;BME280;13506;50.852;20.632;2023-01-16T09:36:21;96993.84;;;0.05;100.00
21359;BME280;13506;50.852;20.632;2023-01-16T09:38:49;96990.00;;;-0.04;100.00
21359;BME280;13506;50.852;20.632;2023-01-16T09:41:18;96987.63;;;0.09;100.00
21359;BME280;13506;50.852;20.632;2023-01-16T09:44:01;96984.34;;;0.23;100.00
21359;BME280;13506;50.852;20.632;2023-01-16T09:46:35;96985.69;;;0.46;100.00
21359;BME280;13506;50.852;20.632;2023-01-16T09:49:16;96975.56;;;0.43;100.00
21359;BME280;13506;50.852;20.632;2023-01-16T09:51:54;96977.22;;;0.44;100.00
21359;BME280;13506;50.852;20.632;2023-01-16T09:54:44;96967.75;;;0.61;100.00
21359;BME280;13506;50.852;20.632;2023-01-16T09:57:33;96962.88;;;0.72;100.00
21359;BME280;13506;50.852;20.632;2023-01-16T10:00:20;96957.38;;;0.78;100.00
21359;BME280;13506;50.852;20.632;2023-01-16T10:02:51;96957.13;;;0.83;100.00
21359;BME280;13506;50.852;20.632;2023-01-16T10:05:21;96942.00;;;0.92;100.00
21359;BME280;13506;50.852;20.632;2023-01-16T10:07:59;96948.13;;;1.06;100.00
21359;BME280;13506;50.852;20.632;2023-01-16T10:10:41;96935.09;;;1.23;100.00
21359;BME280;13506;50.852;20.632;2023-01-16T10:16:24;96933.41;;;1.52;100.00
21359;BME280;13506;50.852;20.632;2023-01-16T10:19:02;96919.66;;;1.23;100.00
21359;BME280;13506;50.852;20.632;2023-01-16T10:21:57;96909.00;;;1.29;100.00
21359;BME280;13506;50.852;20.632;2023-01-16T10:24:42;96910.47;;;0.73;100.00
21359;BME280;13506;50.852;20.632;2023-01-16T10:27:19;96903.97;;;0.82;100.00
21359;BME280;13506;50.852;20.632;2023-01-16T10:29:53;96899.44;;;0.71;100.00
21359;BME280;13506;50.852;20.632;2023-01-16T10:32:29;96901.50;;;0.80;100.00
21359;BME280;13506;50.852;20.632;2023-01-16T10:35:06;96890.41;;;0.94;100.00
21359;BME280;13506;50.852;20.632;2023-01-16T10:37:39;96884.44;;;0.93;100.00
21359;BME280;13506;50.852;20.632;2023-01-16T10:40:14;96874.09;;;0.79;100.00
21359;BME280;13506;50.852;20.632;2023-01-16T10:42:46;96871.91;;;0.87;100.00
21359;BME280;13506;50.852;20.632;2023-01-16T10:45:36;96856.31;;;0.90;100.00
21359;BME280;13506;50.852;20.632;2023-01-16T10:48:21;96848.75;;;0.41;100.00
21359;BME280;13506;50.852;20.632;2023-01-16T10:51:12;96857.75;;;0.34;100.00
21359;BME280;13506;50.852;20.632;2023-01-16T10:53:40;96847.19;;;0.54;100.00
21359;BME280;13506;50.852;20.632;2023-01-16T10:56:08;96839.00;;;0.78;100.00
21359;BME280;13506;50.852;20.632;2023-01-16T10:58:38;96838.63;;;0.54;100.00
21359;BME280;13506;50.852;20.632;2023-01-16T11:01:13;96836.03;;;0.54;100.00
21359;BME280;13506;50.852;20.632;2023-01-16T11:03:45;96828.81;;;0.61;100.00
21359;BME280;13506;50.852;20.632;2023-01-16T11:06:19;96823.59;;;0.92;100.00
21359;BME280;13506;50.852;20.632;2023-01-16T11:08:48;96810.44;;;0.97;100.00
21359;BME280;13506;50.852;20.632;2023-01-16T11:11:16;96809.38;;;0.85;100.00
21359;BME280;13506;50.852;20.632;2023-01-16T11:14:10;96790.94;;;0.63;100.00
21359;BME280;13506;50.852;20.632;2023-01-16T11:17:00;96791.69;;;0.65;100.00
21359;BME280;13506;50.852;20.632;2023-01-16T11:19:58;96784.47;;;0.71;100.00
21359;BME280;13506;50.852;20.632;2023-01-16T11:22:28;96767.44;;;0.69;100.00
21359;BME280;13506;50.852;20.632;2023-01-16T11:24:57;96777.28;;;0.76;100.00
21359;BME280;13506;50.852;20.632;2023-01-16T11:27:30;96777.91;;;0.66;100.00
21359;BME280;13506;50.852;20.632;2023-01-16T11:30:03;96774.25;;;0.70;100.00
21359;BME280;13506;50.852;20.632;2023-01-16T11:32:35;96766.44;;;0.86;100.00
21359;BME280;13506;50.852;20.632;2023-01-16T11:35:12;96748.72;;;0.81;100.00
21359;BME280;13506;50.852;20.632;2023-01-16T11:37:45;96734.63;;;0.72;100.00
21359;BME280;13506;50.852;20.632;2023-01-16T11:40:20;96736.59;;;0.83;100.00
21359;BME280;13506;50.852;20.632;2023-01-16T11:42:53;96729.97;;;0.79;100.00
21359;BME280;13506;50.852;20.632;2023-01-16T11:45:42;96722.59;;;0.73;100.00
21359;BME280;13506;50.852;20.632;2023-01-16T11:48:36;96722.97;;;0.81;100.00
21359;BME280;13506;50.852;20.632;2023-01-16T11:51:06;96710.03;;;0.83;100.00
21359;BME280;13506;50.852;20.632;2023-01-16T11:53:39;96715.72;;;0.73;100.00
21359;BME280;13506;50.852;20.632;2023-01-16T11:56:46;96719.47;;;0.96;100.00
21359;BME280;13506;50.852;20.632;2023-01-16T11:59:47;96703.03;;;0.99;100.00
21359;BME280;13506;50.852;20.632;2023-01-16T12:02:50;96693.72;;;1.11;100.00
21359;BME280;13506;50.852;20.632;2023-01-16T12:05:37;96697.59;;;1.04;100.00
21359;BME280;13506;50.852;20.632;2023-01-16T12:11:29;96683.84;;;1.46;100.00
21359;BME280;13506;50.852;20.632;2023-01-16T12:14:10;96689.56;;;1.64;100.00
21359;BME280;13506;50.852;20.632;2023-01-16T12:17:07;96683.31;;;1.41;100.00
21359;BME280;13506;50.852;20.632;2023-01-16T12:23:15;96669.97;;;1.34;100.00
21359;BME280;13506;50.852;20.632;2023-01-16T12:25:55;96652.28;;;1.01;100.00
21359;BME280;13506;50.852;20.632;2023-01-16T12:28:38;96643.09;;;1.38;100.00
21359;BME280;13506;50.852;20.632;2023-01-16T12:31:23;96650.78;;;1.53;100.00
21359;BME280;13506;50.852;20.632;2023-01-16T12:34:29;96628.94;;;1.31;100.00
21359;BME280;13506;50.852;20.632;2023-01-16T12:37:24;96626.06;;;1.36;100.00
21359;BME280;13506;50.852;20.632;2023-01-16T12:40:07;96626.00;;;1.37;100.00
21359;BME280;13506;50.852;20.632;2023-01-16T12:42:49;96624.38;;;1.22;100.00
21359;BME280;13506;50.852;20.632;2023-01-16T12:45:47;96626.50;;;1.43;100.00
21359;BME280;13506;50.852;20.632;2023-01-16T12:48:43;96613.53;;;1.17;100.00
21359;BME280;13506;50.852;20.632;2023-01-16T12:51:40;96625.63;;;1.29;100.00
21359;BME280;13506;50.852;20.632;2023-01-16T12:54:40;96611.94;;;1.56;100.00
21359;BME280;13506;50.852;20.632;2023-01-16T12:57:42;96605.09;;;1.42;100.00
21359;BME280;13506;50.852;20.632;2023-01-16T13:00:16;96612.66;;;0.89;100.00
21359;BME280;13506;50.852;20.632;2023-01-16T13:02:52;96608.19;;;1.20;100.00
21359;BME280;13506;50.852;20.632;2023-01-16T13:05:27;96602.59;;;1.13;100.00
21359;BME280;13506;50.852;20.632;2023-01-16T13:08:02;96594.63;;;1.04;100.00
21359;BME280;13506;50.852;20.632;2023-01-16T13:10:36;96593.22;;;1.12;100.00
21359;BME280;13506;50.852;20.632;2023-01-16T13:13:26;96582.22;;;0.96;100.00
21359;BME280;13506;50.852;20.632;2023-01-16T13:16:02;96583.50;;;1.03;100.00
21359;BME280;13506;50.852;20.632;2023-01-16T13:18:37;96570.84;;;1.13;100.00
21359;BME280;13506;50.852;20.632;2023-01-16T13:21:10;96584.47;;;1.15;100.00
21359;BME280;13506;50.852;20.632;2023-01-16T13:23:46;96572.66;;;1.25;100.00
21359;BME280;13506;50.852;20.632;2023-01-16T13:26:17;96576.94;;;1.12;100.00
21359;BME280;13506;50.852;20.632;2023-01-16T13:28:52;96573.00;;;1.06;100.00
21359;BME280;13506;50.852;20.632;2023-01-16T13:31:27;96574.53;;;1.09;100.00
21359;BME280;13506;50.852;20.632;2023-01-16T13:34:07;96564.75;;;1.01;100.00
21359;BME280;13506;50.852;20.632;2023-01-16T13:40:34;96563.13;;;1.13;100.00